Time;durP1;ratioP1;P1;durP2;ratioP2;P2;SDS_P1;SDS_P2;PMS_P1;PMS_P2;Temp;Humidity;BMP_temperature;BMP_pressure;BME280_temperature;BME280_humidity;BME280_pressure;Samples;Min_cycle;Max_cycle;Signal;HPM_P1;HPM_P2
2023/09/15 00:01:39;;;;;;;7.28;3.83;;;;;;;10.36;100.00;101640.09;5069271;28;20060;-68
2023/09/15 00:04:06;;;;;;;7.90;4.25;;;;;;;10.31;100.00;101630.78;5069775;28;20051;-64
2023/09/15 00:06:37;;;;;;;10.98;3.80;;;;;;;10.22;100.00;101633.28;5069859;28;20040;-64
2023/09/15 00:09:14;;;;;;;14.82;4.03;;;;;;;10.13;100.00;101628.75;5069074;28;20068;-65
2023/09/15 00:11:42;;;;;;;9.50;3.92;;;;;;;10.12;100.00;101635.06;5068866;28;20105;-64
2023/09/15 00:14:13;;;;;;;8.73;3.95;;;;;;;10.11;100.00;101624.50;5069094;28;20052;-64
2023/09/15 00:16:42;;;;;;;7.10;3.72;;;;;;;10.06;100.00;101626.72;5068841;28;20090;-63
2023/09/15 00:19:15;;;;;;;8.10;4.20;;;;;;;9.96;100.00;101627.53;5068434;28;20110;-64
2023/09/15 00:21:44;;;;;;;12.00;3.97;;;;;;;9.92;100.00;101625.25;5068971;28;20047;-62
2023/09/15 00:24:11;;;;;;;8.43;3.88;;;;;;;9.84;100.00;101622.41;5068458;28;20048;-63
2023/09/15 00:26:38;;;;;;;7.35;3.78;;;;;;;9.75;100.00;101618.66;5069183;28;20052;-64
2023/09/15 00:29:05;;;;;;;9.52;4.13;;;;;;;9.68;100.00;101618.38;5069657;28;20527;-63
2023/09/15 00:31:32;;;;;;;21.20;4.10;;;;;;;9.72;100.00;101616.28;5068037;28;20386;-64
2023/09/15 00:33:59;;;;;;;10.57;4.18;;;;;;;9.66;100.00;101616.81;5068096;28;20044;-63
2023/09/15 00:36:25;;;;;;;8.82;4.00;;;;;;;9.70;100.00;101621.75;5069038;28;20045;-64
2023/09/15 00:38:52;;;;;;;8.00;3.72;;;;;;;9.64;100.00;101616.06;5068791;28;20053;-64
2023/09/15 00:41:18;;;;;;;11.88;4.20;;;;;;;9.62;100.00;101613.53;5068671;28;20045;-65
2023/09/15 00:43:45;;;;;;;11.38;3.90;;;;;;;9.59;100.00;101615.63;5068822;28;20514;-64
2023/09/15 00:46:12;;;;;;;9.52;3.70;;;;;;;9.57;100.00;101610.41;5068759;28;20565;-63
2023/09/15 00:48:40;;;;;;;9.43;4.13;;;;;;;9.49;100.00;101604.84;5068710;28;20415;-63
2023/09/15 00:51:07;;;;;;;10.13;4.15;;;;;;;9.38;100.00;101596.91;5068975;28;20127;-66
2023/09/15 00:53:38;;;;;;;10.30;4.78;;;;;;;9.34;100.00;101593.63;5068771;28;20045;-63
2023/09/15 00:56:08;;;;;;;10.02;4.80;;;;;;;9.35;100.00;101584.63;5069459;28;20445;-62
2023/09/15 00:58:39;;;;;;;9.77;4.20;;;;;;;9.31;100.00;101581.34;5071455;28;20492;-62
2023/09/15 01:01:08;;;;;;;7.75;3.92;;;;;;;9.32;100.00;101583.03;5071798;28;20044;-66
2023/09/15 01:03:40;;;;;;;10.13;3.92;;;;;;;9.30;100.00;101581.47;5072876;28;20048;-63
2023/09/15 01:09:48;;;;;;;11.05;4.13;;;;;;;9.24;100.00;101582.84;5071711;28;20086;-64
2023/09/15 01:12:14;;;;;;;8.10;3.42;;;;;;;9.20;100.00;101580.53;5072583;28;20053;-62
2023/09/15 01:14:41;;;;;;;12.63;4.03;;;;;;;9.13;100.00;101580.22;5071543;28;20121;-62
2023/09/15 01:17:18;;;;;;;10.60;4.50;;;;;;;9.09;100.00;101578.75;5071840;28;20201;-63
2023/09/15 01:20:13;;;;;;;10.93;3.97;;;;;;;9.15;100.00;101572.03;5070232;28;20098;-62
2023/09/15 01:23:36;;;;;;;9.10;4.00;;;;;;;9.20;100.00;101575.19;5071566;28;20082;-64
2023/09/15 01:26:29;;;;;;;7.95;3.70;;;;;;;9.13;100.00;101584.69;5026767;28;20044;-64
2023/09/15 01:29:17;;;;;;;6.93;3.80;;;;;;;8.94;100.00;101570.19;5071559;28;20044;-64
2023/09/15 01:31:46;;;;;;;11.73;3.95;;;;;;;8.94;100.00;101577.38;5066749;28;20512;-69
2023/09/15 01:34:16;;;;;;;13.23;4.13;;;;;;;8.87;100.00;101569.00;5052021;28;20131;-69
2023/09/15 01:36:46;;;;;;;6.22;3.90;;;;;;;8.83;100.00;101572.94;5051394;28;20488;-70
2023/09/15 01:39:13;;;;;;;8.00;4.53;;;;;;;8.82;100.00;101576.59;5051601;28;20049;-63
2023/09/15 01:41:39;;;;;;;8.90;4.60;;;;;;;8.78;100.00;101576.00;5051212;28;20083;-62
2023/09/15 01:44:06;;;;;;;7.88;4.07;;;;;;;8.78;100.00;101580.47;5052426;28;20399;-62
2023/09/15 01:46:32;;;;;;;11.50;4.25;;;;;;;8.79;100.00;101572.34;5051611;28;20075;-65
2023/09/15 01:49:00;;;;;;;9.88;4.40;;;;;;;8.78;100.00;101575.13;5050077;28;20127;-62
2023/09/15 01:51:29;;;;;;;8.25;4.45;;;;;;;8.80;100.00;101574.03;5051018;28;20053;-72
2023/09/15 01:53:55;;;;;;;8.02;3.60;;;;;;;8.83;100.00;101570.25;5050833;28;20052;-74
2023/09/15 01:56:26;;;;;;;7.05;4.30;;;;;;;8.79;100.00;101576.84;5051447;28;20052;-73
2023/09/15 01:58:53;;;;;;;9.13;4.60;;;;;;;8.84;100.00;101575.47;5050892;28;20611;-74
2023/09/15 02:01:19;;;;;;;12.10;4.40;;;;;;;8.82;100.00;101571.22;5050748;28;20072;-73
2023/09/15 02:03:46;;;;;;;12.00;4.72;;;;;;;8.82;100.00;101576.59;5050699;28;20552;-73
2023/09/15 02:06:16;;;;;;;9.65;4.18;;;;;;;8.84;100.00;101574.63;5050826;28;20488;-73
2023/09/15 02:08:44;;;;;;;9.15;3.78;;;;;;;8.81;100.00;101578.38;5050001;28;20041;-73
2023/09/15 02:11:11;;;;;;;9.00;4.43;;;;;;;8.81;100.00;101574.88;5050351;28;20049;-73
2023/09/15 02:13:42;;;;;;;7.60;4.03;;;;;;;8.87;100.00;101577.03;5057219;28;20048;-73
2023/09/15 02:16:11;;;;;;;9.00;3.77;;;;;;;8.88;100.00;101581.41;5070366;28;20454;-73
2023/09/15 02:18:37;;;;;;;6.55;3.67;;;;;;;8.81;100.00;101580.22;5051806;28;20060;-72
2023/09/15 02:21:04;;;;;;;8.75;4.25;;;;;;;8.81;100.00;101578.38;5051863;28;20460;-74
2023/09/15 02:23:30;;;;;;;13.73;4.03;;;;;;;8.75;100.00;101581.59;5051439;28;20041;-73
2023/09/15 02:26:02;;;;;;;8.95;4.20;;;;;;;8.76;100.00;101580.59;5050529;28;22197;-74
2023/09/15 02:28:29;;;;;;;10.02;4.43;;;;;;;8.73;100.00;101582.69;5058684;28;20051;-65
2023/09/15 02:30:56;;;;;;;8.10;4.10;;;;;;;8.76;100.00;101579.75;5071620;28;20101;-64
2023/09/15 02:33:23;;;;;;;7.82;4.32;;;;;;;8.70;100.00;101573.09;5071909;28;20397;-63
2023/09/15 02:35:50;;;;;;;16.33;4.57;;;;;;;8.59;100.00;101568.63;5071725;28;20064;-64
2023/09/15 02:38:17;;;;;;;11.00;4.35;;;;;;;8.59;100.00;101567.78;5071646;28;20068;-63
2023/09/15 02:40:43;;;;;;;10.27;4.25;;;;;;;8.54;100.00;101572.69;5071583;28;20471;-64
2023/09/15 02:43:11;;;;;;;11.00;4.05;;;;;;;8.53;100.00;101574.47;5071385;28;20715;-62
2023/09/15 02:45:38;;;;;;;11.88;4.28;;;;;;;8.56;100.00;101563.53;5071430;28;20447;-65
2023/09/15 02:48:05;;;;;;;10.55;4.10;;;;;;;8.59;100.00;101570.44;5071804;28;20085;-62
2023/09/15 02:50:32;;;;;;;11.40;4.28;;;;;;;8.63;100.00;101571.06;5070181;28;20051;-63
2023/09/15 02:52:59;;;;;;;8.18;4.63;;;;;;;8.60;100.00;101566.78;5071005;28;20129;-62
2023/09/15 02:55:26;;;;;;;8.65;4.45;;;;;;;8.50;100.00;101564.03;5071090;28;20052;-63
2023/09/15 02:57:54;;;;;;;9.10;3.97;;;;;;;8.53;100.00;101562.94;5071134;28;20045;-63
2023/09/15 03:00:20;;;;;;;12.73;4.80;;;;;;;8.51;100.00;101562.22;5071479;28;20059;-63
2023/09/15 03:02:47;;;;;;;8.55;4.97;;;;;;;8.44;100.00;101559.19;5071391;28;20049;-63
2023/09/15 03:05:14;;;;;;;11.13;4.60;;;;;;;8.38;100.00;101557.03;5070954;28;20055;-62
2023/09/15 03:07:42;;;;;;;12.05;5.03;;;;;;;8.28;100.00;101561.41;5071077;28;20102;-63
2023/09/15 03:10:10;;;;;;;11.20;5.30;;;;;;;8.24;100.00;101554.63;5071128;28;20048;-64
2023/09/15 03:12:37;;;;;;;13.32;4.97;;;;;;;8.19;100.00;101548.78;5071572;28;20048;-63
2023/09/15 03:15:07;;;;;;;12.13;4.80;;;;;;;8.21;100.00;101544.19;5071003;28;20048;-63
2023/09/15 03:17:34;;;;;;;10.88;5.10;;;;;;;8.25;100.00;101542.94;5071058;28;20051;-63
2023/09/15 03:20:13;;;;;;;7.88;4.30;;;;;;;8.21;100.00;101547.69;5070027;28;20049;-63
2023/09/15 03:22:40;;;;;;;12.02;5.13;;;;;;;8.21;100.00;101553.03;5070088;28;20131;-63
2023/09/15 03:25:07;;;;;;;9.48;4.78;;;;;;;8.21;100.00;101562.91;5071459;28;20052;-63
2023/09/15 03:27:34;;;;;;;8.35;4.30;;;;;;;8.28;100.00;101556.06;5070208;28;20044;-64
2023/09/15 03:30:04;;;;;;;8.27;4.75;;;;;;;8.28;100.00;101556.91;5070536;28;20381;-62
2023/09/15 03:32:30;;;;;;;11.52;4.57;;;;;;;8.29;100.00;101557.75;5070559;28;20040;-63
2023/09/15 03:34:57;;;;;;;8.60;4.93;;;;;;;8.28;100.00;101553.41;5070843;28;20048;-63
2023/09/15 03:37:24;;;;;;;9.23;5.55;;;;;;;8.30;100.00;101554.13;5070739;28;20115;-63
2023/09/15 03:39:50;;;;;;;10.25;5.10;;;;;;;8.30;100.00;101549.63;5070460;28;20051;-63
2023/09/15 03:42:17;;;;;;;14.18;5.43;;;;;;;8.34;100.00;101560.94;5070326;28;20507;-63
2023/09/15 03:44:43;;;;;;;13.77;5.50;;;;;;;8.31;100.00;101556.66;5070911;28;20048;-64
2023/09/15 03:47:10;;;;;;;9.32;4.88;;;;;;;8.32;100.00;101557.50;5070549;28;20102;-64
2023/09/15 03:49:37;;;;;;;14.98;4.95;;;;;;;8.33;100.00;101560.09;5071123;28;20404;-62
2023/09/15 03:52:03;;;;;;;16.30;5.20;;;;;;;8.33;100.00;101548.50;5070878;28;20060;-63
2023/09/15 03:54:30;;;;;;;10.27;5.43;;;;;;;8.34;100.00;101545.72;5069861;28;20498;-62
2023/09/15 03:56:57;;;;;;;7.60;4.63;;;;;;;8.29;100.00;101550.59;5069264;28;20037;-62
2023/09/15 03:59:23;;;;;;;10.55;5.00;;;;;;;8.35;100.00;101557.28;5067407;28;20079;-63
2023/09/15 04:01:50;;;;;;;10.25;5.22;;;;;;;8.34;100.00;101547.56;5068483;28;20055;-65
2023/09/15 04:04:16;;;;;;;10.85;5.00;;;;;;;8.30;100.00;101551.47;5069974;28;20076;-63
2023/09/15 04:06:43;;;;;;;24.63;5.18;;;;;;;8.24;100.00;101557.31;5068244;28;20045;-64
2023/09/15 04:09:12;;;;;;;11.23;5.50;;;;;;;8.19;100.00;101551.47;5069786;28;20056;-63
2023/09/15 04:11:40;;;;;;;12.82;5.18;;;;;;;8.21;100.00;101561.06;5068913;28;20060;-64
2023/09/15 04:14:07;;;;;;;15.27;5.85;;;;;;;8.15;100.00;101556.22;5049913;28;20115;-63
2023/09/15 04:16:37;;;;;;;10.85;5.13;;;;;;;8.14;100.00;101555.38;5047679;28;20421;-63
2023/09/15 04:19:04;;;;;;;12.55;5.93;;;;;;;8.11;100.00;101555.59;5048228;28;20045;-63
2023/09/15 04:21:31;;;;;;;12.18;5.45;;;;;;;8.14;100.00;101562.53;5049222;28;20068;-63
2023/09/15 04:23:57;;;;;;;13.65;5.43;;;;;;;8.14;100.00;101559.88;5048571;28;20055;-63
2023/09/15 04:26:24;;;;;;;12.18;5.57;;;;;;;8.12;100.00;101562.69;5048564;28;20417;-63
2023/09/15 04:28:50;;;;;;;14.50;5.65;;;;;;;8.05;100.00;101565.94;5048770;28;20087;-65
2023/09/15 04:31:17;;;;;;;13.75;5.53;;;;;;;8.11;100.00;101552.94;5050755;28;20056;-64
2023/09/15 04:33:45;;;;;;;13.57;5.95;;;;;;;8.07;100.00;101559.50;5052472;28;20051;-66
2023/09/15 04:36:12;;;;;;;13.93;5.70;;;;;;;8.06;100.00;101560.50;5052272;28;20056;-66
2023/09/15 04:38:39;;;;;;;11.55;5.60;;;;;;;7.97;100.00;101563.88;5053305;28;20044;-64
2023/09/15 04:41:05;;;;;;;16.63;5.80;;;;;;;7.98;100.00;101565.56;5052312;28;20136;-62
2023/09/15 04:43:32;;;;;;;8.90;5.22;;;;;;;7.97;100.00;101566.56;5050428;28;20554;-63
2023/09/15 04:45:59;;;;;;;10.48;5.47;;;;;;;7.94;100.00;101569.47;5052777;28;20041;-64
2023/09/15 04:48:26;;;;;;;15.65;6.00;;;;;;;7.94;100.00;101557.94;5053065;28;20099;-62
2023/09/15 04:50:52;;;;;;;14.40;5.47;;;;;;;7.90;100.00;101566.19;5052680;28;20068;-63
2023/09/15 04:53:22;;;;;;;20.67;5.90;;;;;;;7.98;100.00;101570.91;5051798;28;20129;-63
2023/09/15 04:55:50;;;;;;;14.15;5.68;;;;;;;7.93;100.00;101566.94;5051621;28;20102;-62
2023/09/15 04:58:16;;;;;;;11.85;5.70;;;;;;;7.85;100.00;101565.72;5052278;28;20147;-62
2023/09/15 05:00:43;;;;;;;11.07;5.65;;;;;;;7.83;100.00;101567.63;5051950;28;20391;-64
2023/09/15 05:03:10;;;;;;;14.07;6.07;;;;;;;7.80;100.00;101570.53;5051924;28;20048;-64
2023/09/15 05:05:37;;;;;;;17.70;5.22;;;;;;;7.65;100.00;101569.09;5052155;28;20073;-63
2023/09/15 05:08:03;;;;;;;15.05;6.40;;;;;;;7.66;100.00;101562.75;5052057;28;20052;-63
2023/09/15 05:10:30;;;;;;;12.68;5.95;;;;;;;7.63;100.00;101560.34;5051226;28;20048;-73
2023/09/15 05:12:58;;;;;;;15.13;6.10;;;;;;;7.65;100.00;101558.41;5050861;28;20048;-73
2023/09/15 05:15:25;;;;;;;12.68;5.82;;;;;;;7.64;100.00;101557.56;5051724;28;20376;-73
2023/09/15 05:17:51;;;;;;;17.02;6.68;;;;;;;7.65;100.00;101561.91;5044001;28;20468;-71
2023/09/15 05:20:18;;;;;;;10.88;5.88;;;;;;;7.64;100.00;101560.22;5032065;28;20045;-73
2023/09/15 05:22:45;;;;;;;11.02;5.60;;;;;;;7.73;100.00;101563.97;5032505;28;20045;-72
2023/09/15 05:25:11;;;;;;;16.55;6.38;;;;;;;7.81;100.00;101568.72;5032485;28;20049;-73
2023/09/15 05:27:39;;;;;;;12.20;5.82;;;;;;;7.87;100.00;101570.94;5030425;28;20069;-73
2023/09/15 05:30:06;;;;;;;14.18;6.90;;;;;;;7.94;100.00;101569.47;5030427;28;20635;-73
2023/09/15 05:32:36;;;;;;;9.85;5.45;;;;;;;8.07;100.00;101574.69;5030346;28;20053;-69
2023/09/15 05:35:02;;;;;;;12.27;5.30;;;;;;;8.09;100.00;101578.97;5030715;28;20524;-70
2023/09/15 05:37:29;;;;;;;9.48;5.57;;;;;;;8.12;100.00;101578.72;5029273;28;20049;-69
2023/09/15 05:39:56;;;;;;;16.95;6.38;;;;;;;8.00;100.00;101565.47;5030629;28;20049;-68
2023/09/15 05:42:22;;;;;;;12.27;5.80;;;;;;;8.12;100.00;101576.03;5028887;28;20053;-68
2023/09/15 05:44:49;;;;;;;15.85;5.80;;;;;;;8.05;100.00;101572.16;5030039;28;20050;-68
2023/09/15 05:47:16;;;;;;;10.35;5.50;;;;;;;8.12;100.00;101577.84;5029593;28;20123;-67
2023/09/15 05:49:42;;;;;;;17.48;5.93;;;;;;;8.26;100.00;101579.41;5030085;28;20726;-69
2023/09/15 05:52:09;;;;;;;13.07;5.93;;;;;;;8.33;100.00;101575.25;5031218;28;20390;-69
2023/09/15 05:54:36;;;;;;;14.43;5.75;;;;;;;8.40;100.00;101575.59;5030533;28;20084;-69
2023/09/15 05:57:02;;;;;;;12.65;5.93;;;;;;;8.40;100.00;101576.47;5029932;28;20478;-69
2023/09/15 05:59:29;;;;;;;10.57;5.75;;;;;;;8.47;100.00;101571.44;5029801;28;20049;-69
2023/09/15 06:01:56;;;;;;;10.90;6.20;;;;;;;8.49;100.00;101575.72;5030418;28;20042;-68
2023/09/15 06:04:23;;;;;;;9.52;5.78;;;;;;;8.49;100.00;101574.84;5029502;28;20053;-68
2023/09/15 06:06:49;;;;;;;15.25;6.40;;;;;;;8.59;100.00;101576.66;5029326;28;20133;-67
2023/09/15 06:09:16;;;;;;;20.23;6.05;;;;;;;8.56;100.00;101576.91;5030126;28;20193;-67
2023/09/15 06:11:43;;;;;;;13.25;6.30;;;;;;;8.68;100.00;101579.53;5030722;28;20045;-70
2023/09/15 06:14:09;;;;;;;13.70;6.10;;;;;;;8.61;100.00;101581.88;5040634;28;20060;-69
2023/09/15 06:16:36;;;;;;;12.15;6.53;;;;;;;8.74;100.00;101579.88;5050046;28;20048;-69
2023/09/15 06:19:03;;;;;;;12.60;5.57;;;;;;;8.71;100.00;101581.94;5049172;28;20037;-69
2023/09/15 06:21:30;;;;;;;13.30;6.30;;;;;;;8.77;100.00;101578.78;5049714;28;20490;-68
2023/09/15 06:23:56;;;;;;;11.18;6.50;;;;;;;8.95;100.00;101576.38;5049455;28;20064;-68
2023/09/15 06:26:23;;;;;;;8.93;5.93;;;;;;;9.03;100.00;101579.28;5049920;28;20079;-69
2023/09/15 06:28:50;;;;;;;9.13;5.80;;;;;;;9.21;100.00;101576.88;5048754;28;20040;-69
2023/09/15 06:31:18;;;;;;;13.45;4.88;;;;;;;9.37;100.00;101581.78;5049923;28;20115;-67
2023/09/15 06:33:45;;;;;;;13.38;5.97;;;;;;;9.56;100.00;101589.94;5050814;28;20128;-69
2023/09/15 06:36:12;;;;;;;10.43;5.82;;;;;;;9.51;100.00;101590.34;5050079;28;20096;-69
2023/09/15 06:38:39;;;;;;;10.43;5.28;;;;;;;9.70;100.00;101600.31;5049166;28;20076;-69
2023/09/15 06:41:05;;;;;;;13.73;6.00;;;;;;;9.64;100.00;101594.63;5049189;28;22046;-69
2023/09/15 06:43:32;;;;;;;10.13;5.38;;;;;;;9.77;100.00;101600.63;5049458;28;20048;-68
2023/09/15 06:45:59;;;;;;;17.35;5.05;;;;;;;10.13;100.00;101595.69;5048550;28;20091;-69
2023/09/15 06:48:25;;;;;;;13.82;5.78;;;;;;;10.40;100.00;101606.66;5049924;28;20148;-68
2023/09/15 06:50:52;;;;;;;15.43;5.47;;;;;;;10.67;100.00;101611.41;5048452;28;20493;-68
2023/09/15 06:53:19;;;;;;;11.30;5.57;;;;;;;11.11;100.00;101619.91;5049546;28;20052;-67
2023/09/15 06:55:46;;;;;;;13.40;5.57;;;;;;;11.41;100.00;101631.47;5049656;28;20045;-67
2023/09/15 06:58:12;;;;;;;11.27;5.43;;;;;;;11.60;100.00;101633.28;5050527;28;20056;-69
2023/09/15 07:00:39;;;;;;;17.42;5.07;;;;;;;12.01;100.00;101642.81;5050085;28;20489;-68
2023/09/15 07:03:05;;;;;;;14.52;5.30;;;;;;;12.67;100.00;101665.16;5050169;28;21662;-68
2023/09/15 07:05:32;;;;;;;12.45;5.10;;;;;;;13.24;100.00;101668.47;5050336;28;20467;-68
2023/09/15 07:07:59;;;;;;;8.68;4.80;;;;;;;13.44;100.00;101677.22;5049456;28;20390;-68
2023/09/15 07:10:25;;;;;;;13.05;5.43;;;;;;;13.70;100.00;101682.66;5050092;28;20049;-69
2023/09/15 07:12:53;;;;;;;10.30;4.80;;;;;;;14.18;100.00;101675.91;5050124;28;20412;-68
2023/09/15 07:15:20;;;;;;;6.63;4.35;;;;;;;14.27;100.00;101673.09;5050683;28;20048;-69
2023/09/15 07:17:47;;;;;;;13.68;4.53;;;;;;;14.24;100.00;101670.72;5049725;28;20045;-68
2023/09/15 07:20:14;;;;;;;9.23;4.25;;;;;;;14.31;100.00;101670.91;5050008;28;20056;-70
2023/09/15 07:22:40;;;;;;;21.02;5.22;;;;;;;14.38;100.00;101674.66;5049865;28;20045;-68
2023/09/15 07:25:08;;;;;;;10.68;4.90;;;;;;;14.54;100.00;101672.03;5049644;28;20049;-70
2023/09/15 07:27:35;;;;;;;11.65;4.68;;;;;;;14.55;100.00;101667.47;5049641;28;20086;-68
2023/09/15 07:30:01;;;;;;;13.90;4.90;;;;;;;13.89;100.00;101668.16;5048516;28;20516;-69
2023/09/15 07:32:28;;;;;;;12.90;5.38;;;;;;;13.98;100.00;101673.44;5049405;28;20133;-67
2023/09/15 07:34:54;;;;;;;10.38;4.90;;;;;;;14.17;100.00;101679.63;5048695;28;20055;-69
2023/09/15 07:37:21;;;;;;;9.85;4.68;;;;;;;14.28;100.00;101676.63;5048812;28;20049;-69
2023/09/15 07:39:48;;;;;;;9.73;4.55;;;;;;;14.47;100.00;101676.38;5046981;28;20453;-69
2023/09/15 07:42:14;;;;;;;10.13;4.78;;;;;;;14.61;100.00;101674.91;5050704;28;20129;-69
2023/09/15 07:44:41;;;;;;;9.73;4.50;;;;;;;14.84;100.00;101679.72;5048771;28;20045;-68
2023/09/15 07:47:09;;;;;;;12.65;4.97;;;;;;;15.07;100.00;101679.97;5048917;28;20706;-68
2023/09/15 07:49:36;;;;;;;12.02;4.47;;;;;;;15.70;100.00;101682.03;5048701;28;20059;-69
2023/09/15 07:52:03;;;;;;;9.68;4.35;;;;;;;16.23;100.00;101685.13;5048217;28;20045;-68
2023/09/15 07:54:30;;;;;;;8.82;4.63;;;;;;;16.23;100.00;101685.13;5049041;28;20053;-69
2023/09/15 07:56:56;;;;;;;10.13;4.85;;;;;;;16.10;100.00;101678.41;5048812;28;20049;-68
2023/09/15 07:59:23;;;;;;;8.90;4.40;;;;;;;16.13;100.00;101672.66;5048565;28;20461;-68
2023/09/15 08:01:50;;;;;;;7.25;4.28;;;;;;;16.06;100.00;101678.94;5046800;28;20335;-69
2023/09/15 08:04:16;;;;;;;9.50;4.00;;;;;;;16.02;100.00;101678.44;5049123;28;20056;-67
2023/09/15 08:06:43;;;;;;;9.85;4.45;;;;;;;16.96;100.00;101686.72;5052236;28;20484;-68
2023/09/15 08:09:10;;;;;;;9.48;3.78;;;;;;;17.64;100.00;101685.84;5051535;28;20366;-69
2023/09/15 08:11:38;;;;;;;8.13;4.45;;;;;;;17.31;100.00;101685.28;5052527;28;20064;-69
2023/09/15 08:14:05;;;;;;;6.03;4.07;;;;;;;16.82;100.00;101681.03;5052088;28;20389;-69
2023/09/15 08:16:31;;;;;;;15.70;3.85;;;;;;;17.06;100.00;101674.59;5053156;28;20049;-69
2023/09/15 08:18:59;;;;;;;8.88;3.90;;;;;;;17.32;100.00;101681.53;5051648;28;20473;-68
2023/09/15 08:21:26;;;;;;;9.73;4.07;;;;;;;16.61;100.00;101673.50;5050894;28;20496;-69
2023/09/15 08:23:53;;;;;;;9.18;3.67;;;;;;;17.01;100.00;101668.03;5051716;28;20049;-68
2023/09/15 08:26:22;;;;;;;6.40;3.63;;;;;;;17.32;100.00;101671.50;5051995;28;20064;-68
2023/09/15 08:28:52;;;;;;;8.02;3.88;;;;;;;17.81;100.00;101671.09;5052088;28;20075;-68
2023/09/15 08:31:18;;;;;;;8.10;3.53;;;;;;;18.68;100.00;101669.59;5052180;28;20052;-68
2023/09/15 08:33:45;;;;;;;8.18;3.78;;;;;;;18.19;100.00;101671.06;5052524;28;20049;-69
2023/09/15 08:36:12;;;;;;;11.48;4.40;;;;;;;18.93;100.00;101664.69;5051592;28;20041;-69
2023/09/15 08:38:39;;;;;;;10.13;4.93;;;;;;;19.27;97.15;101667.53;5052064;28;20045;-68
2023/09/15 08:41:24;;;;;;;5.40;3.35;;;;;;;19.84;90.50;101663.03;5051587;28;20041;-69
2023/09/15 08:43:52;;;;;;;7.40;3.58;;;;;;;19.84;86.03;101656.75;5051162;28;20123;-69
2023/09/15 08:46:19;;;;;;;9.82;4.43;;;;;;;19.80;85.70;101656.28;5052179;28;20049;-68
2023/09/15 08:48:50;;;;;;;8.85;3.83;;;;;;;20.20;82.14;101651.06;5051694;28;20041;-69
2023/09/15 08:51:17;;;;;;;8.20;3.47;;;;;;;19.86;79.25;101655.47;5052532;28;20052;-69
2023/09/15 08:53:45;;;;;;;6.78;3.50;;;;;;;20.62;75.48;101647.28;5052355;28;20283;-70
2023/09/15 08:56:14;;;;;;;6.80;3.47;;;;;;;20.00;76.05;101645.50;5051847;28;20045;-69
2023/09/15 08:58:41;;;;;;;5.35;3.35;;;;;;;20.79;73.79;101644.22;5052293;28;20095;-68
2023/09/15 09:01:09;;;;;;;9.25;3.83;;;;;;;21.32;67.45;101649.78;5050917;28;20049;-69
2023/09/15 09:03:38;;;;;;;8.05;3.38;;;;;;;21.71;62.52;101643.47;5052982;28;20079;-68
2023/09/15 09:06:10;;;;;;;7.93;4.00;;;;;;;20.99;61.51;101642.38;5051631;28;20052;-69
2023/09/15 09:08:44;;;;;;;7.60;3.28;;;;;;;19.81;67.98;101644.34;5052849;28;20116;-70
2023/09/15 09:11:11;;;;;;;8.20;4.07;;;;;;;19.40;77.46;101649.66;5051410;28;20076;-69
2023/09/15 09:13:39;;;;;;;13.10;3.35;;;;;;;20.70;69.67;101645.44;5051173;28;20106;-69
2023/09/15 09:16:15;;;;;;;7.05;3.20;;;;;;;21.43;61.24;101651.06;5051124;28;20487;-69
2023/09/15 09:18:41;;;;;;;6.55;2.88;;;;;;;21.94;59.00;101651.22;5051035;28;20056;-69
2023/09/15 09:21:08;;;;;;;7.95;3.47;;;;;;;23.07;55.36;101648.03;5051141;28;20047;-69
2023/09/15 09:23:35;;;;;;;7.53;3.45;;;;;;;23.60;52.58;101642.13;5050282;28;20136;-69
2023/09/15 09:26:10;;;;;;;25.77;8.15;;;;;;;23.03;51.47;101647.63;5050284;28;20427;-68
2023/09/15 09:28:38;;;;;;;9.35;3.17;;;;;;;21.13;56.60;101646.81;5050735;28;20049;-69
2023/09/15 09:31:05;;;;;;;10.18;3.60;;;;;;;22.06;55.90;101645.97;5049886;28;20128;-69
2023/09/15 09:33:31;;;;;;;11.30;3.67;;;;;;;22.76;54.56;101636.00;5050781;28;20044;-69
2023/09/15 09:36:08;;;;;;;9.48;3.53;;;;;;;23.84;49.73;101636.88;5050056;28;20098;-68
2023/09/15 09:38:35;;;;;;;9.30;2.75;;;;;;;23.90;49.94;101635.97;5050914;28;20083;-69
2023/09/15 09:41:03;;;;;;;8.32;2.70;;;;;;;22.82;49.15;101628.00;5051730;28;20076;-69
2023/09/15 09:43:32;;;;;;;10.18;3.10;;;;;;;22.95;50.51;101630.66;5052031;28;20098;-68
2023/09/15 09:46:00;;;;;;;5.85;2.67;;;;;;;22.02;51.11;101637.34;5052729;28;20103;-70
2023/09/15 09:48:27;;;;;;;4.47;2.67;;;;;;;23.20;49.96;101626.06;5052710;28;20049;-69
2023/09/15 09:50:55;;;;;;;6.03;2.95;;;;;;;22.34;51.14;101634.72;5051916;28;20454;-68
2023/09/15 09:53:29;;;;;;;3.78;2.63;;;;;;;22.89;49.45;101626.06;5052554;28;20102;-68
2023/09/15 09:55:56;;;;;;;6.10;2.47;;;;;;;22.34;50.75;101621.03;5051514;28;20044;-69
2023/09/15 09:58:24;;;;;;;4.85;2.78;;;;;;;22.41;50.58;101610.91;5051751;28;20053;-68
2023/09/15 10:00:51;;;;;;;6.03;2.53;;;;;;;22.15;52.06;101628.28;5050149;28;20041;-70
2023/09/15 10:03:17;;;;;;;4.50;2.65;;;;;;;23.69;47.66;101610.66;5051636;28;20056;-68
2023/09/15 10:05:44;;;;;;;10.05;2.67;;;;;;;24.58;46.10;101607.56;5051101;28;20053;-71
2023/09/15 10:08:11;;;;;;;8.88;2.85;;;;;;;24.61;44.41;101607.06;5050765;28;20090;-71
2023/09/15 10:10:41;;;;;;;8.70;2.72;;;;;;;25.50;43.32;101599.75;5050413;28;20405;-66
2023/09/15 10:13:08;;;;;;;5.35;2.47;;;;;;;24.86;42.74;101601.44;5050641;28;20049;-66
2023/09/15 10:15:36;;;;;;;4.53;2.63;;;;;;;24.01;44.78;101596.84;5050326;28;20425;-65
2023/09/15 10:18:04;;;;;;;6.43;2.60;;;;;;;24.72;43.47;101592.56;5049140;28;20132;-65
2023/09/15 10:20:33;;;;;;;6.57;2.80;;;;;;;24.25;43.10;101597.81;5050326;28;20048;-70
2023/09/15 10:22:59;;;;;;;9.82;2.80;;;;;;;24.81;42.84;101591.16;5048855;28;20041;-70
2023/09/15 10:25:42;;;;;;;6.95;2.80;;;;;;;24.12;44.19;101590.59;5050052;28;20079;-71
2023/09/15 10:28:11;;;;;;;4.05;2.38;;;;;;;22.47;45.61;101590.13;5049554;28;20052;-71
2023/09/15 10:30:55;;;;;;;6.60;2.97;;;;;;;21.66;49.63;101585.06;5050659;28;20720;-71
2023/09/15 10:33:26;;;;;;;5.65;3.28;;;;;;;22.85;47.51;101584.63;5050100;28;20110;-70
2023/09/15 10:36:01;;;;;;;3.87;2.20;;;;;;;21.55;48.90;101576.47;5049639;28;20697;-70
2023/09/15 10:38:29;;;;;;;4.85;2.65;;;;;;;21.33;50.59;101569.59;5050381;28;20302;-70
2023/09/15 10:41:01;;;;;;;5.00;2.83;;;;;;;21.79;48.92;101577.72;5040710;28;20482;-69
2023/09/15 10:43:28;;;;;;;6.03;3.13;;;;;;;22.53;48.52;101570.06;5030473;28;20390;-70
2023/09/15 10:45:57;;;;;;;5.93;2.75;;;;;;;22.14;48.60;101571.09;5027730;28;20057;-70
2023/09/15 10:48:48;;;;;;;5.75;2.55;;;;;;;21.93;48.91;101573.06;5030871;28;20049;-69
2023/09/15 10:51:18;;;;;;;4.72;2.75;;;;;;;20.96;50.92;101560.13;5030488;28;20057;-70
2023/09/15 10:53:48;;;;;;;7.57;3.20;;;;;;;20.56;51.62;101551.84;5029788;28;20041;-71
2023/09/15 10:56:18;;;;;;;5.88;3.30;;;;;;;19.73;55.00;101551.97;5029789;28;20071;-71
2023/09/15 10:58:49;;;;;;;9.95;2.67;;;;;;;20.61;53.97;101552.09;5030252;28;20490;-71
2023/09/15 11:01:19;;;;;;;7.22;3.10;;;;;;;20.76;54.11;101551.91;5049857;28;20114;-69
2023/09/15 11:03:46;;;;;;;6.80;3.17;;;;;;;21.02;54.23;101545.66;5050629;28;20071;-71
2023/09/15 11:06:17;;;;;;;5.10;2.63;;;;;;;21.81;52.90;101537.38;5049554;28;20056;-70
2023/09/15 11:08:44;;;;;;;6.38;2.92;;;;;;;21.04;51.50;101538.94;5050164;28;20045;-71
2023/09/15 11:11:11;;;;;;;7.15;2.80;;;;;;;19.53;54.87;101537.34;5047837;28;20140;-70
2023/09/15 11:13:40;;;;;;;8.90;3.22;;;;;;;19.16;56.45;101532.06;5055431;28;20052;-70
2023/09/15 11:16:11;;;;;;;8.57;3.10;;;;;;;18.89;59.44;101544.56;5067441;28;20048;-70
2023/09/15 11:18:38;;;;;;;3.80;2.80;;;;;;;19.24;58.76;101541.94;5069684;28;20090;-72
2023/09/15 11:21:06;;;;;;;6.63;3.45;;;;;;;18.98;61.75;101538.00;5067589;28;20446;-72
2023/09/15 11:23:33;;;;;;;8.48;3.20;;;;;;;18.34;68.01;101537.09;5067937;28;20044;-71
2023/09/15 11:26:05;;;;;;;9.10;3.22;;;;;;;18.54;73.15;101539.00;5067645;28;20493;-72
2023/09/15 11:28:47;;;;;;;6.57;3.22;;;;;;;19.56;67.35;101528.78;5070049;28;20066;-71